Time;durP1;ratioP1;P1;durP2;ratioP2;P2;SDS_P1;SDS_P2;PMS_P1;PMS_P2;Temp;Humidity;BMP_temperature;BMP_pressure;BME280_temperature;BME280_humidity;BME280_pressure;Samples;Min_cycle;Max_cycle;Signal;HPM_P1;HPM_P2
2023/03/22 06:00:12;;;;;;;4.37;3.07;;;10.20;97.20;;;;;;1700248;29;20187;-68
2023/03/22 06:01:04;;;;;;;4.68;3.15;;;10.20;97.20;;;;;;1699616;29;20294;-68
2023/03/22 06:01:56;;;;;;;3.28;2.95;;;10.20;97.20;;;;;;1700366;29;20206;-68
2023/03/22 06:02:48;;;;;;;4.18;3.45;;;10.20;97.20;;;;;;1700603;29;20207;-67
2023/03/22 06:03:40;;;;;;;3.10;2.80;;;10.30;97.20;;;;;;1700697;29;20670;-68
2023/03/22 06:04:30;;;;;;;3.30;3.00;;;10.30;97.20;;;;;;1700700;29;20210;-68
2023/03/22 06:05:23;;;;;;;3.80;3.33;;;10.30;97.20;;;;;;1700380;29;20202;-66
2023/03/22 06:06:14;;;;;;;4.60;3.30;;;10.30;97.20;;;;;;1700714;29;20226;-65
2023/03/22 06:07:06;;;;;;;3.33;3.00;;;10.30;97.20;;;;;;1700491;29;20203;-68
2023/03/22 06:07:57;;;;;;;3.10;2.80;;;10.30;97.20;;;;;;1700610;29;20233;-68
2023/03/22 06:08:49;;;;;;;4.80;3.33;;;10.30;97.20;;;;;;1700629;29;20203;-67
2023/03/22 06:09:40;;;;;;;4.10;3.20;;;10.30;97.20;;;;;;1700560;29;20459;-67
2023/03/22 06:10:32;;;;;;;3.60;3.25;;;10.20;97.20;;;;;;1700580;29;20246;-68
2023/03/22 06:11:23;;;;;;;3.50;3.20;;;10.20;97.20;;;;;;1700595;29;20203;-67
2023/03/22 06:12:15;;;;;;;3.50;3.13;;;10.30;97.20;;;;;;1700630;29;20736;-67
2023/03/22 06:13:06;;;;;;;4.72;2.70;;;10.30;97.20;;;;;;1700595;29;20250;-67
2023/03/22 06:13:58;;;;;;;5.70;2.90;;;10.30;97.20;;;;;;1698679;29;20232;-68
2023/03/22 06:14:49;;;;;;;3.50;2.70;;;10.30;97.20;;;;;;1695360;29;20470;-67
2023/03/22 06:15:42;;;;;;;3.03;2.83;;;10.30;97.20;;;;;;1695258;29;20209;-68
2023/03/22 06:16:33;;;;;;;2.83;2.63;;;10.40;97.20;;;;;;1695208;29;20487;-70
2023/03/22 06:17:24;;;;;;;3.57;3.27;;;10.40;97.20;;;;;;1698495;29;20203;-68
2023/03/22 06:18:15;;;;;;;3.47;3.17;;;10.40;97.20;;;;;;1698979;29;20209;-68
2023/03/22 06:19:07;;;;;;;3.50;2.90;;;10.40;97.20;;;;;;1701761;29;20285;-68
2023/03/22 06:19:58;;;;;;;4.63;3.53;;;10.40;97.20;;;;;;1698491;29;20214;-67
2023/03/22 06:20:50;;;;;;;3.30;3.00;;;10.50;97.20;;;;;;1701651;29;20227;-68
2023/03/22 06:21:41;;;;;;;4.88;3.10;;;10.50;97.20;;;;;;1701693;29;20214;-68
2023/03/22 06:22:33;;;;;;;4.50;3.88;;;10.50;97.20;;;;;;1701378;29;20290;-68
2023/03/22 06:23:24;;;;;;;3.35;3.08;;;10.50;97.20;;;;;;1701708;29;20210;-68
2023/03/22 06:24:15;;;;;;;5.33;3.20;;;10.60;97.20;;;;;;1697429;29;20240;-67
2023/03/22 06:25:07;;;;;;;4.18;3.20;;;10.60;97.20;;;;;;1696174;29;20455;-67
2023/03/22 06:25:59;;;;;;;4.95;3.50;;;10.70;97.20;;;;;;1698536;29;20258;-67
2023/03/22 06:26:50;;;;;;;3.67;3.38;;;10.70;97.20;;;;;;1700119;29;20207;-67
2023/03/22 06:27:42;;;;;;;3.72;3.42;;;10.70;97.20;;;;;;1702757;29;20260;-67
2023/03/22 06:28:33;;;;;;;5.35;3.65;;;10.70;97.20;;;;;;1702571;29;20204;-67
2023/03/22 06:29:25;;;;;;;3.10;2.80;;;10.80;97.20;;;;;;1699912;29;20278;-66
2023/03/22 06:30:15;;;;;;;3.67;3.20;;;10.80;97.20;;;;;;1699204;28;20200;-67
2023/03/22 06:31:09;;;;;;;3.27;2.80;;;10.90;97.20;;;;;;1701937;28;20294;-68
2023/03/22 06:32:01;;;;;;;3.67;3.38;;;11.00;97.20;;;;;;1700335;29;20428;-67
2023/03/22 06:32:54;;;;;;;3.40;3.10;;;11.00;97.20;;;;;;1701834;29;20221;-68
2023/03/22 06:33:45;;;;;;;3.97;3.58;;;11.10;97.20;;;;;;1704655;29;20297;-67
2023/03/22 06:34:37;;;;;;;3.92;3.40;;;11.10;97.20;;;;;;1698180;29;20202;-68
2023/03/22 06:35:28;;;;;;;3.80;3.50;;;11.20;97.20;;;;;;1697209;29;20199;-68
2023/03/22 06:36:20;;;;;;;3.57;3.13;;;11.20;97.20;;;;;;1698408;29;20200;-67
2023/03/22 06:37:10;;;;;;;3.97;3.58;;;11.20;97.20;;;;;;1699770;29;20450;-67
2023/03/22 06:38:02;;;;;;;3.53;3.23;;;11.30;97.20;;;;;;1698743;29;20198;-67
2023/03/22 06:38:53;;;;;;;7.75;3.30;;;11.30;97.20;;;;;;1700385;29;20199;-67
2023/03/22 06:39:45;;;;;;;4.17;2.93;;;11.40;97.20;;;;;;1697525;29;20209;-68
2023/03/22 06:40:35;;;;;;;3.92;3.00;;;11.40;97.20;;;;;;1698212;29;20267;-67
2023/03/22 06:41:27;;;;;;;4.80;3.30;;;11.40;97.20;;;;;;1699551;29;20214;-67
2023/03/22 06:42:19;;;;;;;3.10;2.90;;;11.50;97.20;;;;;;1697382;29;20227;-67
2023/03/22 06:43:11;;;;;;;3.60;3.03;;;11.50;97.20;;;;;;1696995;29;20195;-67
2023/03/22 06:44:02;;;;;;;5.13;3.10;;;11.50;97.20;;;;;;1698226;29;20662;-68
2023/03/22 06:44:54;;;;;;;4.33;3.03;;;11.60;97.20;;;;;;1698351;29;20579;-68
2023/03/22 06:45:45;;;;;;;4.35;3.25;;;11.60;97.20;;;;;;1696438;29;20455;-68
2023/03/22 06:46:38;;;;;;;3.47;3.17;;;11.60;97.20;;;;;;1694671;29;20291;-67
2023/03/22 06:47:29;;;;;;;4.07;3.08;;;11.70;97.20;;;;;;1697286;29;20444;-67
2023/03/22 06:48:21;;;;;;;5.23;2.60;;;11.70;97.20;;;;;;1697488;29;20282;-68
2023/03/22 06:49:12;;;;;;;3.90;2.60;;;11.80;97.20;;;;;;1700803;29;20592;-68
2023/03/22 06:50:04;;;;;;;3.53;3.00;;;11.80;97.20;;;;;;1701183;29;20570;-68
2023/03/22 06:50:54;;;;;;;3.15;2.85;;;11.90;97.20;;;;;;1701471;29;20705;-67
2023/03/22 06:51:46;;;;;;;2.93;2.70;;;11.90;97.20;;;;;;1701259;29;20576;-68
2023/03/22 06:52:37;;;;;;;4.07;2.70;;;11.90;97.20;;;;;;1700799;29;20219;-69
2023/03/22 06:53:29;;;;;;;4.30;2.83;;;12.00;97.20;;;;;;1700961;29;20217;-69
2023/03/22 06:54:20;;;;;;;3.03;2.40;;;12.10;97.20;;;;;;1701009;29;20207;-69
2023/03/22 06:55:12;;;;;;;3.30;3.00;;;12.10;97.20;;;;;;1700366;29;20207;-68
2023/03/22 06:56:03;;;;;;;3.10;2.80;;;12.20;97.20;;;;;;1700714;29;20207;-69
2023/03/22 06:56:55;;;;;;;3.05;2.70;;;12.20;97.20;;;;;;1701055;29;20313;-69
2023/03/22 06:57:46;;;;;;;2.95;2.65;;;12.30;97.20;;;;;;1701610;29;20230;-68
2023/03/22 06:58:37;;;;;;;3.30;3.00;;;12.30;97.20;;;;;;1701608;29;20199;-68
2023/03/22 06:59:28;;;;;;;4.35;3.05;;;12.40;97.20;;;;;;1701590;29;20607;-69
2023/03/22 07:00:20;;;;;;;3.67;2.47;;;12.40;97.20;;;;;;1701635;29;20290;-68
2023/03/22 07:01:11;;;;;;;3.42;2.45;;;12.50;97.20;;;;;;1701675;29;20447;-68
2023/03/22 07:02:04;;;;;;;2.87;2.57;;;12.50;97.20;;;;;;1701658;29;20210;-68
2023/03/22 07:02:55;;;;;;;3.03;2.55;;;12.50;97.20;;;;;;1701272;29;20215;-68
2023/03/22 07:03:47;;;;;;;2.63;2.40;;;12.60;97.20;;;;;;1701584;29;20210;-68
2023/03/22 07:04:38;;;;;;;3.35;2.65;;;12.60;97.20;;;;;;1699884;29;20848;-69
2023/03/22 07:05:30;;;;;;;2.63;2.42;;;12.70;97.20;;;;;;1696482;29;21029;-68
2023/03/22 07:06:21;;;;;;;2.55;2.30;;;12.70;97.20;;;;;;1695763;29;20215;-68
2023/03/22 07:07:13;;;;;;;3.20;2.47;;;12.70;97.20;;;;;;1701520;29;20238;-68
2023/03/22 07:08:04;;;;;;;3.22;2.53;;;12.70;97.20;;;;;;1701525;29;20214;-68
2023/03/22 07:08:55;;;;;;;3.10;2.53;;;12.70;97.20;;;;;;1697187;29;20214;-69
2023/03/22 07:09:46;;;;;;;3.47;2.40;;;12.70;97.20;;;;;;1701653;29;20578;-68
2023/03/22 07:10:38;;;;;;;2.40;2.20;;;12.80;97.20;;;;;;1700179;29;20219;-68
2023/03/22 07:11:29;;;;;;;3.97;2.78;;;12.80;97.20;;;;;;1697357;29;20942;-68
2023/03/22 07:12:20;;;;;;;3.03;2.30;;;12.80;97.20;;;;;;1701378;29;20717;-68
2023/03/22 07:13:11;;;;;;;4.50;2.58;;;12.80;97.20;;;;;;1701274;29;20215;-68
2023/03/22 07:14:03;;;;;;;4.60;2.07;;;12.90;97.20;;;;;;1701563;29;20287;-68
2023/03/22 07:14:54;;;;;;;2.42;2.20;;;12.90;97.20;;;;;;1701473;29;20214;-68
2023/03/22 07:15:46;;;;;;;2.17;2.00;;;12.90;97.20;;;;;;1701035;29;20201;-69
2023/03/22 07:16:36;;;;;;;2.50;2.15;;;12.90;97.20;;;;;;1701408;29;20214;-68
2023/03/22 07:17:29;;;;;;;2.70;2.13;;;12.90;97.20;;;;;;1701496;29;20206;-68
2023/03/22 07:18:20;;;;;;;2.67;2.13;;;12.90;97.20;;;;;;1697319;29;20200;-68
2023/03/22 07:19:12;;;;;;;3.90;2.10;;;13.00;97.20;;;;;;1694953;29;20279;-68
2023/03/22 07:20:03;;;;;;;2.90;2.60;;;13.00;97.20;;;;;;1694923;29;20215;-68
2023/03/22 07:20:55;;;;;;;3.10;1.98;;;13.00;97.20;;;;;;1696970;29;20228;-68
2023/03/22 07:21:46;;;;;;;2.70;2.20;;;13.10;97.20;;;;;;1700269;29;20689;-68
2023/03/22 07:22:38;;;;;;;2.80;2.20;;;13.10;97.20;;;;;;1694712;29;20580;-69
2023/03/22 07:23:29;;;;;;;2.70;1.90;;;13.10;97.20;;;;;;1700642;29;20203;-68
2023/03/22 07:24:20;;;;;;;2.33;1.93;;;13.20;97.20;;;;;;1700131;29;20205;-68
2023/03/22 07:25:12;;;;;;;2.70;2.50;;;13.20;97.20;;;;;;1700240;29;20203;-67
2023/03/22 07:26:04;;;;;;;3.97;2.72;;;13.30;97.20;;;;;;1700714;29;20242;-67
2023/03/22 07:26:55;;;;;;;2.28;2.08;;;13.30;97.20;;;;;;1700688;29;20215;-69
2023/03/22 07:27:47;;;;;;;2.93;2.30;;;13.30;97.20;;;;;;1700912;29;20211;-67
2023/03/22 07:28:40;;;;;;;3.13;2.47;;;13.30;97.20;;;;;;1700853;29;20211;-68
2023/03/22 07:29:32;;;;;;;3.53;2.88;;;13.30;97.20;;;;;;1701303;29;20234;-68
2023/03/22 07:30:22;;;;;;;4.40;2.00;;;13.30;97.20;;;;;;1701183;29;20199;-68
2023/03/22 07:31:14;;;;;;;3.70;2.20;;;13.40;97.20;;;;;;1701556;29;20198;-67
2023/03/22 07:32:05;;;;;;;2.83;2.35;;;13.40;97.20;;;;;;1701365;29;20203;-69
2023/03/22 07:32:58;;;;;;;3.43;2.37;;;13.50;97.20;;;;;;1701249;29;20222;-67
2023/03/22 07:33:50;;;;;;;3.13;2.50;;;13.50;97.20;;;;;;1701194;29;20455;-67
2023/03/22 07:34:42;;;;;;;2.00;1.80;;;13.50;97.20;;;;;;1701378;29;20214;-68
2023/03/22 07:35:34;;;;;;;3.50;1.98;;;13.60;97.20;;;;;;1701010;29;20203;-67
2023/03/22 07:36:26;;;;;;;2.25;1.90;;;13.60;97.20;;;;;;1701366;29;20199;-68
2023/03/22 07:37:17;;;;;;;2.20;2.00;;;13.70;97.20;;;;;;1700934;29;20254;-68
2023/03/22 07:38:08;;;;;;;4.77;2.20;;;13.70;97.20;;;;;;1700946;29;20207;-69
2023/03/22 07:39:00;;;;;;;1.92;1.83;;;13.80;97.20;;;;;;1700820;29;20210;-68
2023/03/22 07:39:52;;;;;;;2.90;2.08;;;13.80;97.20;;;;;;1700770;29;20203;-67
2023/03/22 07:40:42;;;;;;;1.95;1.75;;;13.90;97.20;;;;;;1699308;29;20231;-68
2023/03/22 07:41:34;;;;;;;2.20;2.00;;;13.90;97.20;;;;;;1699733;29;20199;-67
2023/03/22 07:42:25;;;;;;;2.83;1.73;;;14.00;97.20;;;;;;1701290;29;20249;-67
2023/03/22 07:43:17;;;;;;;5.53;2.03;;;14.00;97.20;;;;;;1701300;29;20207;-68
2023/03/22 07:44:07;;;;;;;2.30;2.05;;;14.10;97.20;;;;;;1694713;29;20500;-67
2023/03/22 07:44:59;;;;;;;3.67;1.90;;;14.20;97.20;;;;;;1694918;29;20284;-68
2023/03/22 07:45:51;;;;;;;2.20;2.00;;;14.20;97.20;;;;;;1694338;29;20210;-68
2023/03/22 07:46:43;;;;;;;2.67;1.95;;;14.20;97.20;;;;;;1694842;29;20592;-69
2023/03/22 07:47:33;;;;;;;2.50;2.30;;;14.20;97.20;;;;;;1694847;29;20208;-68
2023/03/22 07:48:27;;;;;;;2.90;1.70;;;14.20;97.20;;;;;;1694680;29;20298;-68
2023/03/22 07:49:18;;;;;;;2.33;2.08;;;14.20;97.20;;;;;;1694808;29;20215;-69
2023/03/22 07:50:12;;;;;;;2.50;2.30;;;14.20;97.20;;;;;;1694830;29;20208;-68
2023/03/22 07:51:03;;;;;;;2.85;2.53;;;14.20;97.20;;;;;;1694720;29;20629;-68
2023/03/22 07:51:55;;;;;;;2.58;2.00;;;14.20;97.20;;;;;;1694798;29;20663;-69
2023/03/22 07:52:46;;;;;;;2.90;1.85;;;14.30;97.20;;;;;;1694467;29;20219;-68
2023/03/22 07:53:38;;;;;;;2.85;2.10;;;14.30;97.20;;;;;;1694788;29;20239;-68
2023/03/22 07:54:29;;;;;;;2.28;2.08;;;14.30;97.20;;;;;;1694701;29;20211;-68
2023/03/22 07:55:20;;;;;;;5.47;2.30;;;14.40;97.20;;;;;;1694272;29;20218;-68
2023/03/22 07:56:11;;;;;;;2.53;1.80;;;14.40;97.20;;;;;;1694782;29;20459;-68
2023/03/22 07:57:03;;;;;;;3.10;1.70;;;14.40;97.20;;;;;;1695864;29;20237;-68
2023/03/22 07:57:53;;;;;;;2.00;1.73;;;14.40;97.20;;;;;;1701408;29;20214;-68
2023/03/22 07:58:45;;;;;;;2.37;1.93;;;14.40;97.20;;;;;;1701288;29;20207;-68
2023/03/22 07:59:36;;;;;;;3.03;1.67;;;14.50;97.20;;;;;;1701370;29;20214;-67
2023/03/22 08:00:28;;;;;;;2.10;1.90;;;14.50;97.20;;;;;;1701171;29;20214;-69
2023/03/22 08:01:20;;;;;;;2.85;1.90;;;14.50;97.20;;;;;;1701435;29;20218;-68
2023/03/22 08:02:12;;;;;;;4.50;1.75;;;14.50;97.20;;;;;;1701306;29;20203;-68
2023/03/22 08:03:03;;;;;;;1.95;1.75;;;14.60;97.20;;;;;;1701086;29;20226;-68
2023/03/22 08:03:56;;;;;;;2.95;1.67;;;14.60;97.20;;;;;;1701246;29;20199;-68
2023/03/22 08:04:47;;;;;;;1.60;1.50;;;14.60;97.20;;;;;;1701283;29;20207;-69
2023/03/22 08:05:40;;;;;;;2.10;1.60;;;14.70;97.20;;;;;;1700720;29;20199;-67
2023/03/22 08:06:31;;;;;;;3.08;1.92;;;14.70;97.20;;;;;;1701135;29;20569;-68
2023/03/22 08:07:24;;;;;;;2.67;1.40;;;14.80;97.20;;;;;;1701296;29;20233;-68
2023/03/22 08:08:14;;;;;;;1.65;1.50;;;14.80;97.20;;;;;;1701194;29;20221;-68
2023/03/22 08:09:07;;;;;;;1.93;1.73;;;14.90;97.20;;;;;;1701182;29;20203;-68
2023/03/22 08:09:58;;;;;;;3.35;1.48;;;14.90;97.20;;;;;;1701249;29;20233;-68
2023/03/22 08:10:50;;;;;;;2.00;1.70;;;14.90;97.20;;;;;;1701192;29;20223;-68
2023/03/22 08:11:41;;;;;;;1.83;1.65;;;15.00;97.20;;;;;;1701234;29;20204;-69
2023/03/22 08:12:32;;;;;;;6.67;1.70;;;15.00;97.20;;;;;;1701153;29;20207;-67
2023/03/22 08:13:23;;;;;;;1.85;1.58;;;15.10;97.20;;;;;;1697969;29;20699;-67
2023/03/22 08:14:15;;;;;;;3.83;1.70;;;15.10;97.20;;;;;;1694671;29;20696;-66
2023/03/22 08:15:07;;;;;;;2.20;1.30;;;15.20;97.20;;;;;;1694555;29;20452;-67
2023/03/22 08:15:59;;;;;;;2.75;1.58;;;15.20;97.20;;;;;;1694105;29;20303;-67
2023/03/22 08:16:50;;;;;;;2.50;1.48;;;15.20;97.20;;;;;;1694543;29;20550;-67
2023/03/22 08:17:42;;;;;;;4.90;1.40;;;15.20;97.20;;;;;;1694556;29;20250;-68
2023/03/22 08:18:32;;;;;;;2.03;1.40;;;15.30;97.20;;;;;;1694530;29;20452;-67
2023/03/22 08:19:26;;;;;;;2.13;1.60;;;15.30;97.20;;;;;;1694701;29;20214;-66
2023/03/22 08:20:17;;;;;;;2.17;1.85;;;15.30;97.20;;;;;;1694499;29;20200;-67
2023/03/22 08:21:09;;;;;;;2.33;1.53;;;15.40;97.20;;;;;;1694549;29;20239;-67
2023/03/22 08:22:00;;;;;;;2.38;1.42;;;15.50;97.20;;;;;;1694652;29;20455;-67
2023/03/22 08:22:52;;;;;;;2.07;1.73;;;15.60;97.20;;;;;;1694341;29;20200;-68
2023/03/22 08:23:43;;;;;;;2.60;1.50;;;15.60;97.20;;;;;;1694564;29;20448;-67
2023/03/22 08:24:34;;;;;;;2.20;1.47;;;15.70;97.20;;;;;;1694530;29;20210;-68
2023/03/22 08:25:25;;;;;;;2.35;1.35;;;15.70;97.20;;;;;;1693982;29;20698;-67
2023/03/22 08:26:17;;;;;;;1.60;1.40;;;15.80;97.20;;;;;;1694644;29;20245;-67
2023/03/22 08:27:08;;;;;;;3.38;1.40;;;15.80;97.20;;;;;;1694391;29;20506;-67
2023/03/22 08:27:59;;;;;;;2.07;1.27;;;15.90;97.20;;;;;;1694602;29;20259;-67
2023/03/22 08:28:50;;;;;;;1.88;1.40;;;15.90;97.20;;;;;;1694640;29;20208;-66
2023/03/22 08:29:42;;;;;;;1.93;1.40;;;15.90;97.20;;;;;;1695494;29;20208;-67
2023/03/22 08:30:33;;;;;;;3.63;1.70;;;15.90;97.20;;;;;;1694350;29;20239;-67
2023/03/22 08:31:25;;;;;;;1.70;1.50;;;16.00;97.20;;;;;;1694523;29;20202;-68
2023/03/22 08:32:16;;;;;;;3.10;1.60;;;16.00;97.20;;;;;;1694600;29;20950;-67
2023/03/22 08:33:08;;;;;;;1.20;1.05;;;16.00;97.20;;;;;;1694393;29;20709;-67
2023/03/22 08:33:59;;;;;;;2.25;1.50;;;16.00;97.20;;;;;;1694538;29;20230;-67
2023/03/22 08:34:52;;;;;;;2.37;1.30;;;16.10;97.20;;;;;;1694561;29;20208;-68
2023/03/22 08:35:44;;;;;;;2.83;1.30;;;16.10;97.20;;;;;;1693937;29;20216;-66
2023/03/22 08:36:36;;;;;;;2.00;1.60;;;16.20;97.20;;;;;;1693924;29;20196;-67
2023/03/22 08:37:27;;;;;;;3.45;1.27;;;16.30;97.20;;;;;;1694399;29;20709;-67
2023/03/22 08:38:19;;;;;;;2.43;1.70;;;16.40;97.20;;;;;;1694521;29;20778;-67
2023/03/22 08:39:10;;;;;;;1.35;1.10;;;16.40;97.20;;;;;;1694607;29;20333;-67
2023/03/22 08:40:05;;;;;;;1.80;1.30;;;16.50;97.20;;;;;;1694492;29;20203;-67
2023/03/22 08:40:56;;;;;;;2.70;1.30;;;16.50;97.20;;;;;;1694522;29;20468;-66
2023/03/22 08:41:48;;;;;;;3.90;1.50;;;16.60;97.20;;;;;;1694539;29;20204;-68
2023/03/22 08:42:38;;;;;;;1.88;1.60;;;16.60;97.20;;;;;;1694215;29;20208;-67
2023/03/22 08:43:30;;;;;;;1.67;1.50;;;16.70;97.20;;;;;;1694527;29;20203;-67
2023/03/22 08:44:21;;;;;;;1.60;1.20;;;16.70;97.20;;;;;;1698451;29;20199;-68
2023/03/22 08:45:12;;;;;;;2.73;1.50;;;16.70;97.20;;;;;;1700502;29;20210;-67
2023/03/22 08:46:04;;;;;;;2.35;2.15;;;16.70;97.20;;;;;;1700941;29;20215;-67
2023/03/22 08:46:56;;;;;;;1.50;1.30;;;16.70;97.20;;;;;;1700939;29;20580;-67
2023/03/22 08:47:48;;;;;;;2.75;1.70;;;16.80;97.20;;;;;;1701021;29;20203;-66
2023/03/22 08:48:40;;;;;;;7.07;1.70;;;16.90;97.20;;;;;;1700971;29;20207;-67
2023/03/22 08:49:32;;;;;;;1.55;1.45;;;16.90;97.20;;;;;;1701003;29;20206;-67
2023/03/22 08:50:24;;;;;;;2.25;1.67;;;17.00;97.20;;;;;;1700867;29;20207;-67
2023/03/22 08:51:16;;;;;;;2.22;1.30;;;17.00;97.20;;;;;;1701023;29;20218;-67
2023/03/22 08:52:07;;;;;;;2.50;1.55;;;17.10;97.20;;;;;;1700895;29;20230;-67
2023/03/22 08:52:59;;;;;;;1.83;1.30;;;17.10;97.20;;;;;;1700863;29;20203;-68
2023/03/22 08:53:50;;;;;;;1.85;1.00;;;17.20;97.20;;;;;;1701214;29;20632;-66
2023/03/22 08:54:42;;;;;;;1.80;1.40;;;17.20;97.20;;;;;;1700945;29;20209;-67
2023/03/22 08:55:34;;;;;;;1.75;1.40;;;17.20;97.20;;;;;;1700400;29;20207;-67
2023/03/22 08:56:27;;;;;;;1.75;1.48;;;17.20;97.20;;;;;;1700888;29;20601;-67
2023/03/22 08:57:20;;;;;;;2.20;1.20;;;17.30;97.20;;;;;;1700815;29;20628;-67
2023/03/22 08:58:12;;;;;;;1.10;0.95;;;17.30;97.20;;;;;;1700869;29;20291;-67
2023/03/22 08:59:04;;;;;;;2.28;1.20;;;17.30;97.20;;;;;;1700928;29;20665;-67
2023/03/22 08:59:56;;;;;;;1.98;1.30;;;17.40;97.20;;;;;;1699820;29;20203;-68
2023/03/22 09:00:47;;;;;;;1.85;1.60;;;17.40;97.20;;;;;;1700541;29;20319;-67
2023/03/22 09:01:38;;;;;;;2.50;1.67;;;17.40;97.20;;;;;;1700928;29;20267;-67
2023/03/22 09:02:29;;;;;;;1.35;1.25;;;17.50;97.20;;;;;;1700992;29;20207;-67
2023/03/22 09:03:22;;;;;;;3.20;1.20;;;17.50;97.20;;;;;;1700711;29;20209;-66
2023/03/22 09:04:13;;;;;;;1.65;1.40;;;17.70;97.20;;;;;;1700940;29;20274;-67
2023/03/22 09:05:05;;;;;;;1.37;1.17;;;17.80;97.20;;;;;;1700894;29;20269;-67
2023/03/22 09:05:58;;;;;;;2.85;1.40;;;17.90;97.20;;;;;;1700457;29;20207;-67
2023/03/22 09:06:49;;;;;;;2.05;1.45;;;18.00;97.20;;;;;;1700736;29;20202;-66
2023/03/22 09:07:41;;;;;;;3.00;1.80;;;18.10;97.20;;;;;;1700847;29;20198;-67
2023/03/22 09:08:32;;;;;;;2.75;1.52;;;18.30;97.20;;;;;;1700868;29;20214;-67
2023/03/22 09:09:23;;;;;;;1.67;1.30;;;18.30;97.20;;;;;;1700837;29;20692;-67
2023/03/22 09:10:15;;;;;;;1.90;1.60;;;18.40;97.20;;;;;;1700795;29;20483;-67
2023/03/22 09:11:09;;;;;;;2.30;1.40;;;18.50;97.20;;;;;;1700848;29;20205;-67
2023/03/22 09:11:59;;;;;;;1.60;1.20;;;18.60;97.20;;;;;;1700780;29;20214;-67
2023/03/22 09:12:51;;;;;;;1.70;1.30;;;18.70;97.20;;;;;;1700669;29;20443;-67
2023/03/22 09:13:42;;;;;;;1.80;1.45;;;18.70;97.20;;;;;;1700800;29;20596;-67
2023/03/22 09:14:34;;;;;;;5.43;1.80;;;18.70;97.20;;;;;;1700897;29;20549;-67
2023/03/22 09:15:24;;;;;;;2.75;1.30;;;18.70;97.20;;;;;;1700285;29;20203;-66
2023/03/22 09:16:16;;;;;;;2.93;1.40;;;18.70;97.20;;;;;;1700526;29;20203;-67
2023/03/22 09:17:07;;;;;;;1.35;1.23;;;18.70;97.20;;;;;;1699416;29;20458;-67
2023/03/22 09:17:59;;;;;;;2.00;1.47;;;18.70;97.20;;;;;;1700767;29;20250;-67
2023/03/22 09:18:49;;;;;;;2.20;1.25;;;18.70;97.20;;;;;;1700864;29;20207;-67
2023/03/22 09:19:42;;;;;;;1.67;1.30;;;18.70;97.20;;;;;;1700882;29;20223;-67
2023/03/22 09:20:33;;;;;;;2.50;1.40;;;18.70;97.20;;;;;;1700699;29;20318;-68
2023/03/22 09:21:26;;;;;;;1.37;1.10;;;18.80;97.20;;;;;;1700835;29;20247;-67
2023/03/22 09:22:17;;;;;;;1.60;1.33;;;18.80;97.20;;;;;;1700866;29;20695;-67
2023/03/22 09:23:08;;;;;;;2.50;2.20;;;18.90;97.20;;;;;;1700560;29;20203;-67
2023/03/22 09:23:59;;;;;;;1.42;1.30;;;19.00;97.20;;;;;;1700688;29;20222;-67
2023/03/22 09:24:51;;;;;;;1.63;1.53;;;19.00;97.20;;;;;;1700834;29;20195;-67
2023/03/22 09:25:42;;;;;;;3.40;1.70;;;19.10;97.20;;;;;;1700208;29;20478;-67
2023/03/22 09:26:34;;;;;;;2.20;1.50;;;19.10;97.20;;;;;;1700657;29;20206;-67
2023/03/22 09:27:25;;;;;;;2.35;1.70;;;19.10;97.20;;;;;;1700696;29;20203;-66
2023/03/22 09:28:17;;;;;;;1.83;1.50;;;19.10;97.20;;;;;;1700763;29;20649;-67
2023/03/22 09:29:09;;;;;;;1.73;1.63;;;19.10;97.20;;;;;;1700751;29;20459;-67
2023/03/22 09:30:00;;;;;;;1.70;1.50;;;19.10;97.20;;;;;;1700830;29;20199;-68
2023/03/22 09:30:51;;;;;;;2.88;1.52;;;19.10;97.20;;;;;;1700567;29;20242;-66
2023/03/22 09:31:43;;;;;;;1.83;1.50;;;19.10;97.20;;;;;;1700727;29;20205;-67
2023/03/22 09:32:34;;;;;;;1.70;1.60;;;19.10;97.20;;;;;;1699548;29;20207;-67
2023/03/22 09:33:26;;;;;;;2.13;1.33;;;19.10;97.20;;;;;;1694169;29;20497;-67
2023/03/22 09:34:17;;;;;;;1.67;1.30;;;19.10;97.20;;;;;;1694237;29;20573;-67
2023/03/22 09:35:09;;;;;;;1.83;1.30;;;19.10;97.20;;;;;;1694102;29;20210;-68
2023/03/22 09:36:00;;;;;;;3.05;1.67;;;19.20;97.20;;;;;;1694200;29;20290;-68
2023/03/22 09:36:53;;;;;;;1.67;1.33;;;19.40;97.20;;;;;;1694082;29;20255;-67
2023/03/22 09:37:44;;;;;;;1.98;1.50;;;19.40;97.20;;;;;;1694096;29;20452;-67
2023/03/22 09:38:36;;;;;;;3.90;1.60;;;19.50;97.20;;;;;;1694133;29;20267;-66
2023/03/22 09:39:27;;;;;;;2.10;1.27;;;19.60;97.20;;;;;;1694080;29;20218;-67
2023/03/22 09:40:20;;;;;;;3.00;1.42;;;19.80;97.20;;;;;;1694066;29;20251;-67
2023/03/22 09:41:14;;;;;;;1.85;1.40;;;20.00;97.20;;;;;;1694231;29;20204;-68
2023/03/22 09:42:13;;;;;;;1.90;1.50;;;20.30;97.20;;;;;;1694053;29;20208;-67
2023/03/22 09:43:06;;;;;;;2.35;1.55;;;20.60;97.20;;;;;;1693897;29;20218;-68
2023/03/22 09:44:03;;;;;;;1.40;1.30;;;21.00;97.20;;;;;;1694116;29;20242;-67
2023/03/22 09:44:56;;;;;;;1.75;1.33;;;21.60;97.20;;;;;;1694327;29;20204;-67
2023/03/22 09:45:50;;;;;;;2.80;1.67;;;22.60;97.20;;;;;;1693575;29;20604;-67
2023/03/22 09:46:49;;;;;;;1.55;1.40;;;23.90;97.20;;;;;;1693971;29;20208;-68
2023/03/22 09:47:44;;;;;;;2.22;1.20;;;25.40;97.20;;;;;;1694009;29;20200;-67
2023/03/22 09:48:38;;;;;;;1.38;1.25;;;26.80;97.20;;;;;;1693618;29;20200;-68
2023/03/22 09:49:35;;;;;;;2.30;1.58;;;28.10;97.20;;;;;;1696161;29;20222;-68
2023/03/22 09:50:30;;;;;;;1.48;1.20;;;29.20;96.60;;;;;;1700545;29;20227;-67
2023/03/22 09:51:35;;;;;;;1.50;1.40;;;30.10;94.10;;;;;;1700691;29;20222;-67
2023/03/22 09:52:29;;;;;;;1.80;1.30;;;31.10;91.90;;;;;;1700287;29;20239;-67
2023/03/22 09:53:23;;;;;;;1.52;1.42;;;32.00;90.00;;;;;;1700510;29;20211;-68
2023/03/22 09:54:20;;;;;;;1.45;1.15;;;32.80;88.50;;;;;;1700697;29;20199;-67
2023/03/22 09:55:18;;;;;;;2.15;1.33;;;33.40;86.50;;;;;;1700097;29;20211;-68
2023/03/22 09:56:14;;;;;;;1.65;1.38;;;34.00;84.30;;;;;;1700537;29;20215;-68
2023/03/22 09:57:10;;;;;;;1.45;1.30;;;34.30;83.10;;;;;;1700499;29;20241;-68
2023/03/22 09:58:10;;;;;;;1.42;1.30;;;34.60;82.50;;;;;;1700580;29;20551;-68
2023/03/22 09:59:08;;;;;;;1.70;1.30;;;35.00;81.80;;;;;;1700681;29;20211;-68
2023/03/22 10:00:13;;;;;;;1.65;1.17;;;35.40;80.80;;;;;;1700558;29;20278;-68
2023/03/22 10:01:14;;;;;;;2.08;1.50;;;35.60;79.90;;;;;;1700567;29;20278;-68
2023/03/22 10:02:26;;;;;;;2.10;1.25;;;35.50;78.90;;;;;;1700667;29;20211;-68
2023/03/22 10:03:34;;;;;;;1.60;1.35;;;35.60;78.90;;;;;;1700447;29;20208;-68
2023/03/22 10:04:53;;;;;;;2.20;1.52;;;35.70;78.00;;;;;;1700528;29;20211;-68
2023/03/22 10:05:47;;;;;;;3.63;1.13;;;36.20;77.40;;;;;;1698390;29;20211;-67
2023/03/22 10:06:43;;;;;;;1.58;1.20;;;36.70;77.90;;;;;;1700463;29;20199;-68
2023/03/22 10:07:49;;;;;;;1.98;1.30;;;37.30;77.50;;;;;;1699950;29;20208;-68
2023/03/22 10:08:50;;;;;;;1.20;1.10;;;37.80;76.40;;;;;;1700677;29;20501;-68
2023/03/22 10:09:53;;;;;;;1.65;1.33;;;38.30;74.90;;;;;;1700644;29;20214;-68
2023/03/22 10:10:44;;;;;;;1.33;1.23;;;38.50;74.20;;;;;;1700432;29;20230;-68
2023/03/22 10:11:44;;;;;;;1.33;1.13;;;38.50;73.80;;;;;;1700529;29;20450;-68
2023/03/22 10:12:41;;;;;;;1.67;1.30;;;38.50;73.60;;;;;;1700421;29;20451;-69
2023/03/22 10:13:40;;;;;;;1.83;1.10;;;38.30;72.90;;;;;;1700630;29;20435;-68
2023/03/22 10:14:37;;;;;;;1.50;1.40;;;38.20;73.20;;;;;;1700548;29;20447;-68
2023/03/22 10:15:34;;;;;;;1.70;1.37;;;38.20;73.20;;;;;;1700042;29;20443;-68
2023/03/22 10:16:28;;;;;;;1.53;1.10;;;38.10;73.00;;;;;;1700547;29;20455;-68
2023/03/22 10:17:25;;;;;;;1.37;1.23;;;38.20;73.40;;;;;;1700575;29;20446;-68
2023/03/22 10:18:19;;;;;;;2.03;1.30;;;38.20;73.50;;;;;;1700541;29;21000;-68
2023/03/22 10:19:19;;;;;;;1.30;1.10;;;38.30;73.50;;;;;;1700516;29;20862;-68
2023/03/22 10:20:23;;;;;;;2.00;1.03;;;38.20;72.80;;;;;;1700649;29;20795;-68
2023/03/22 10:21:17;;;;;;;1.53;1.40;;;38.10;72.40;;;;;;1700671;29;20451;-68
2023/03/22 10:22:12;;;;;;;1.50;1.40;;;38.10;72.70;;;;;;1697649;29;20450;-68
2023/03/22 10:23:11;;;;;;;2.97;1.23;;;38.20;72.70;;;;;;1693782;29;20461;-69
2023/03/22 10:24:07;;;;;;;1.73;1.20;;;38.30;72.60;;;;;;1693880;29;20448;-68
2023/03/22 10:25:01;;;;;;;1.20;1.10;;;38.30;72.50;;;;;;1694054;29;20440;-68
2023/03/22 10:25:52;;;;;;;2.60;1.20;;;38.20;72.50;;;;;;1693458;29;20483;-68
2023/03/22 10:26:47;;;;;;;1.00;0.90;;;38.00;72.40;;;;;;1693810;29;20466;-69
2023/03/22 10:27:37;;;;;;;1.37;1.13;;;37.60;72.40;;;;;;1693990;29;20454;-68
2023/03/22 10:28:37;;;;;;;1.27;1.03;;;37.10;72.40;;;;;;1693896;29;20442;-68
2023/03/22 10:29:33;;;;;;;3.27;1.50;;;36.50;72.20;;;;;;1693993;29;20204;-69
2023/03/22 10:30:27;;;;;;;1.20;1.10;;;36.10;72.70;;;;;;1693641;29;20471;-68
2023/03/22 10:31:20;;;;;;;2.60;1.60;;;36.10;73.00;;;;;;1694010;29;20475;-68
2023/03/22 10:32:15;;;;;;;2.30;1.20;;;36.50;72.90;;;;;;1693945;29;20448;-68
2023/03/22 10:33:13;;;;;;;1.73;0.93;;;37.00;72.50;;;;;;1693691;29;20466;-69
2023/03/22 10:34:07;;;;;;;1.77;1.20;;;38.00;72.60;;;;;;1693990;29;20499;-69